sensor_id;sensor_type;location;lat;lon;timestamp;P1;durP1;ratioP1;P2;durP2;ratioP2
56670;SDS011;42545;50.054;8.306;2023-04-01T00:00:24;2.40;;;1.20;;
56670;SDS011;42545;50.054;8.306;2023-04-01T00:02:51;2.50;;;0.93;;
56670;SDS011;42545;50.054;8.306;2023-04-01T00:05:19;1.70;;;1.00;;
56670;SDS011;42545;50.054;8.306;2023-04-01T00:07:46;5.68;;;1.50;;
56670;SDS011;42545;50.054;8.306;2023-04-01T00:10:13;3.22;;;1.33;;
56670;SDS011;42545;50.054;8.306;2023-04-01T00:12:40;4.38;;;1.50;;
56670;SDS011;42545;50.054;8.306;2023-04-01T00:15:08;4.60;;;1.23;;
56670;SDS011;42545;50.054;8.306;2023-04-01T00:17:37;4.70;;;1.50;;
56670;SDS011;42545;50.054;8.306;2023-04-01T00:20:04;3.10;;;1.58;;
56670;SDS011;42545;50.054;8.306;2023-04-01T00:22:34;2.33;;;1.10;;
56670;SDS011;42545;50.054;8.306;2023-04-01T00:25:01;3.60;;;1.23;;
56670;SDS011;42545;50.054;8.306;2023-04-01T00:27:28;3.35;;;0.98;;
56670;SDS011;42545;50.054;8.306;2023-04-01T00:29:54;3.78;;;1.30;;
56670;SDS011;42545;50.054;8.306;2023-04-01T00:32:21;2.42;;;1.15;;
56670;SDS011;42545;50.054;8.306;2023-04-01T00:34:49;3.80;;;1.30;;
56670;SDS011;42545;50.054;8.306;2023-04-01T00:37:16;4.28;;;1.38;;
56670;SDS011;42545;50.054;8.306;2023-04-01T00:39:45;2.75;;;1.35;;
56670;SDS011;42545;50.054;8.306;2023-04-01T00:42:12;3.88;;;1.48;;
56670;SDS011;42545;50.054;8.306;2023-04-01T00:44:39;5.68;;;1.30;;
56670;SDS011;42545;50.054;8.306;2023-04-01T00:47:07;3.03;;;1.27;;
56670;SDS011;42545;50.054;8.306;2023-04-01T00:49:35;2.78;;;0.95;;
56670;SDS011;42545;50.054;8.306;2023-04-01T00:52:05;4.47;;;1.42;;
56670;SDS011;42545;50.054;8.306;2023-04-01T00:54:34;3.53;;;1.10;;
56670;SDS011;42545;50.054;8.306;2023-04-01T00:57:04;3.75;;;1.20;;
56670;SDS011;42545;50.054;8.306;2023-04-01T00:59:34;4.57;;;1.30;;
56670;SDS011;42545;50.054;8.306;2023-04-01T01:02:06;5.07;;;1.55;;
56670;SDS011;42545;50.054;8.306;2023-04-01T01:04:35;4.63;;;1.10;;
56670;SDS011;42545;50.054;8.306;2023-04-01T01:07:04;3.85;;;1.10;;
56670;SDS011;42545;50.054;8.306;2023-04-01T01:09:42;2.25;;;1.20;;
56670;SDS011;42545;50.054;8.306;2023-04-01T01:12:18;9.50;;;1.58;;
56670;SDS011;42545;50.054;8.306;2023-04-01T01:14:52;2.63;;;1.10;;
56670;SDS011;42545;50.054;8.306;2023-04-01T01:17:26;2.92;;;1.23;;
56670;SDS011;42545;50.054;8.306;2023-04-01T01:20:11;3.00;;;1.55;;
56670;SDS011;42545;50.054;8.306;2023-04-01T01:23:02;3.13;;;1.50;;
56670;SDS011;42545;50.054;8.306;2023-04-01T01:25:46;4.50;;;1.23;;
56670;SDS011;42545;50.054;8.306;2023-04-01T01:28:29;2.35;;;1.17;;
56670;SDS011;42545;50.054;8.306;2023-04-01T01:31:07;2.27;;;1.10;;
56670;SDS011;42545;50.054;8.306;2023-04-01T01:33:48;3.17;;;1.38;;
56670;SDS011;42545;50.054;8.306;2023-04-01T01:36:26;2.88;;;1.40;;
56670;SDS011;42545;50.054;8.306;2023-04-01T01:38:59;3.33;;;1.10;;
56670;SDS011;42545;50.054;8.306;2023-04-01T01:41:31;2.72;;;1.25;;
56670;SDS011;42545;50.054;8.306;2023-04-01T01:44:00;2.65;;;1.25;;
56670;SDS011;42545;50.054;8.306;2023-04-01T01:46:32;2.97;;;1.30;;
56670;SDS011;42545;50.054;8.306;2023-04-01T01:48:59;2.67;;;1.30;;
56670;SDS011;42545;50.054;8.306;2023-04-01T01:51:31;2.85;;;1.10;;
56670;SDS011;42545;50.054;8.306;2023-04-01T01:53:58;2.20;;;0.90;;
56670;SDS011;42545;50.054;8.306;2023-04-01T01:56:25;4.57;;;1.23;;
56670;SDS011;42545;50.054;8.306;2023-04-01T01:58:55;4.20;;;1.10;;
56670;SDS011;42545;50.054;8.306;2023-04-01T02:01:28;3.80;;;1.08;;
56670;SDS011;42545;50.054;8.306;2023-04-01T02:03:58;2.85;;;1.00;;
56670;SDS011;42545;50.054;8.306;2023-04-01T02:06:25;3.47;;;1.20;;
56670;SDS011;42545;50.054;8.306;2023-04-01T02:08:57;4.25;;;1.15;;
56670;SDS011;42545;50.054;8.306;2023-04-01T02:11:28;3.97;;;1.25;;
56670;SDS011;42545;50.054;8.306;2023-04-01T02:14:00;4.40;;;1.20;;
56670;SDS011;42545;50.054;8.306;2023-04-01T02:16:32;6.65;;;1.40;;
56670;SDS011;42545;50.054;8.306;2023-04-01T02:19:04;2.75;;;1.00;;
56670;SDS011;42545;50.054;8.306;2023-04-01T02:21:34;4.47;;;1.10;;
56670;SDS011;42545;50.054;8.306;2023-04-01T02:24:04;3.78;;;1.00;;
56670;SDS011;42545;50.054;8.306;2023-04-01T02:26:34;3.83;;;1.10;;
56670;SDS011;42545;50.054;8.306;2023-04-01T02:29:01;2.42;;;1.05;;
56670;SDS011;42545;50.054;8.306;2023-04-01T02:31:30;3.90;;;1.27;;
56670;SDS011;42545;50.054;8.306;2023-04-01T02:33:58;4.95;;;1.13;;
56670;SDS011;42545;50.054;8.306;2023-04-01T02:36:25;1.42;;;0.90;;
56670;SDS011;42545;50.054;8.306;2023-04-01T02:38:52;5.47;;;1.00;;
56670;SDS011;42545;50.054;8.306;2023-04-01T02:41:25;5.90;;;1.48;;
56670;SDS011;42545;50.054;8.306;2023-04-01T02:43:52;2.42;;;0.90;;
56670;SDS011;42545;50.054;8.306;2023-04-01T02:46:19;2.35;;;1.02;;
56670;SDS011;42545;50.054;8.306;2023-04-01T02:48:46;3.58;;;1.00;;
56670;SDS011;42545;50.054;8.306;2023-04-01T02:51:15;3.80;;;1.17;;
56670;SDS011;42545;50.054;8.306;2023-04-01T02:53:42;3.92;;;1.10;;
56670;SDS011;42545;50.054;8.306;2023-04-01T02:56:09;3.33;;;0.90;;
56670;SDS011;42545;50.054;8.306;2023-04-01T02:58:37;1.63;;;0.80;;
56670;SDS011;42545;50.054;8.306;2023-04-01T03:01:03;4.47;;;1.15;;
56670;SDS011;42545;50.054;8.306;2023-04-01T03:03:31;7.40;;;1.33;;
56670;SDS011;42545;50.054;8.306;2023-04-01T03:05:57;2.63;;;1.20;;
56670;SDS011;42545;50.054;8.306;2023-04-01T03:08:25;3.72;;;1.15;;
56670;SDS011;42545;50.054;8.306;2023-04-01T03:10:51;1.15;;;0.80;;
56670;SDS011;42545;50.054;8.306;2023-04-01T03:15:50;4.82;;;1.10;;
56670;SDS011;42545;50.054;8.306;2023-04-01T03:18:17;4.15;;;1.35;;
56670;SDS011;42545;50.054;8.306;2023-04-01T03:20:44;4.47;;;1.20;;
56670;SDS011;42545;50.054;8.306;2023-04-01T03:23:11;2.13;;;1.00;;
56670;SDS011;42545;50.054;8.306;2023-04-01T03:25:39;4.53;;;1.60;;
56670;SDS011;42545;50.054;8.306;2023-04-01T03:28:06;2.92;;;1.00;;
56670;SDS011;42545;50.054;8.306;2023-04-01T03:30:33;1.27;;;0.90;;
56670;SDS011;42545;50.054;8.306;2023-04-01T03:33:01;5.22;;;1.20;;
56670;SDS011;42545;50.054;8.306;2023-04-01T03:35:29;4.88;;;1.27;;
56670;SDS011;42545;50.054;8.306;2023-04-01T03:37:56;3.47;;;0.90;;
56670;SDS011;42545;50.054;8.306;2023-04-01T03:40:23;4.25;;;1.23;;
56670;SDS011;42545;50.054;8.306;2023-04-01T03:42:51;2.15;;;0.98;;
56670;SDS011;42545;50.054;8.306;2023-04-01T03:45:19;1.23;;;0.90;;
56670;SDS011;42545;50.054;8.306;2023-04-01T03:47:46;3.08;;;1.10;;
56670;SDS011;42545;50.054;8.306;2023-04-01T03:50:14;2.33;;;1.10;;
56670;SDS011;42545;50.054;8.306;2023-04-01T03:52:41;4.95;;;1.20;;
56670;SDS011;42545;50.054;8.306;2023-04-01T03:55:07;3.47;;;1.13;;
56670;SDS011;42545;50.054;8.306;2023-04-01T03:57:34;3.83;;;1.20;;
56670;SDS011;42545;50.054;8.306;2023-04-01T04:00:01;2.78;;;1.30;;
56670;SDS011;42545;50.054;8.306;2023-04-01T04:02:28;2.53;;;1.25;;
56670;SDS011;42545;50.054;8.306;2023-04-01T04:04:56;6.63;;;1.23;;
56670;SDS011;42545;50.054;8.306;2023-04-01T04:07:23;2.25;;;0.90;;
56670;SDS011;42545;50.054;8.306;2023-04-01T04:09:51;3.25;;;1.08;;
56670;SDS011;42545;50.054;8.306;2023-04-01T04:12:18;6.68;;;1.60;;
56670;SDS011;42545;50.054;8.306;2023-04-01T04:14:45;3.97;;;1.27;;
56670;SDS011;42545;50.054;8.306;2023-04-01T04:17:12;6.50;;;1.40;;
56670;SDS011;42545;50.054;8.306;2023-04-01T04:19:41;2.72;;;0.93;;
56670;SDS011;42545;50.054;8.306;2023-04-01T04:22:09;2.75;;;0.80;;
56670;SDS011;42545;50.054;8.306;2023-04-01T04:24:38;1.75;;;0.80;;
56670;SDS011;42545;50.054;8.306;2023-04-01T04:27:05;3.22;;;0.80;;
56670;SDS011;42545;50.054;8.306;2023-04-01T04:29:31;3.63;;;1.00;;
56670;SDS011;42545;50.054;8.306;2023-04-01T04:31:58;5.82;;;1.20;;
56670;SDS011;42545;50.054;8.306;2023-04-01T04:34:25;1.90;;;1.10;;
56670;SDS011;42545;50.054;8.306;2023-04-01T04:36:52;4.72;;;1.48;;
56670;SDS011;42545;50.054;8.306;2023-04-01T04:39:18;2.97;;;1.00;;
56670;SDS011;42545;50.054;8.306;2023-04-01T04:41:47;5.65;;;1.55;;
56670;SDS011;42545;50.054;8.306;2023-04-01T04:44:14;3.53;;;1.77;;
56670;SDS011;42545;50.054;8.306;2023-04-01T04:46:40;2.08;;;1.15;;
56670;SDS011;42545;50.054;8.306;2023-04-01T04:49:07;6.75;;;1.60;;
56670;SDS011;42545;50.054;8.306;2023-04-01T04:51:34;3.63;;;1.20;;
56670;SDS011;42545;50.054;8.306;2023-04-01T04:54:03;2.13;;;1.10;;
56670;SDS011;42545;50.054;8.306;2023-04-01T04:56:31;4.57;;;1.67;;
56670;SDS011;42545;50.054;8.306;2023-04-01T04:59:00;3.55;;;1.23;;
56670;SDS011;42545;50.054;8.306;2023-04-01T05:01:27;4.30;;;1.27;;
56670;SDS011;42545;50.054;8.306;2023-04-01T05:03:54;3.17;;;1.10;;
56670;SDS011;42545;50.054;8.306;2023-04-01T05:06:20;2.58;;;1.00;;
56670;SDS011;42545;50.054;8.306;2023-04-01T05:08:47;7.97;;;2.25;;
56670;SDS011;42545;50.054;8.306;2023-04-01T05:11:15;3.97;;;1.00;;
56670;SDS011;42545;50.054;8.306;2023-04-01T05:13:45;4.35;;;1.27;;
56670;SDS011;42545;50.054;8.306;2023-04-01T05:16:14;4.53;;;0.95;;
56670;SDS011;42545;50.054;8.306;2023-04-01T05:21:11;3.50;;;0.90;;
56670;SDS011;42545;50.054;8.306;2023-04-01T05:23:41;4.03;;;1.13;;
56670;SDS011;42545;50.054;8.306;2023-04-01T05:26:08;2.25;;;0.90;;
56670;SDS011;42545;50.054;8.306;2023-04-01T05:28:36;2.92;;;1.17;;
56670;SDS011;42545;50.054;8.306;2023-04-01T05:31:03;3.53;;;1.08;;
56670;SDS011;42545;50.054;8.306;2023-04-01T05:33:32;2.70;;;0.77;;
56670;SDS011;42545;50.054;8.306;2023-04-01T05:36:05;0.77;;;0.77;;
56670;SDS011;42545;50.054;8.306;2023-04-01T05:38:32;2.47;;;0.88;;
56670;SDS011;42545;50.054;8.306;2023-04-01T05:40:59;2.13;;;0.90;;
56670;SDS011;42545;50.054;8.306;2023-04-01T05:43:26;2.60;;;0.90;;
56670;SDS011;42545;50.054;8.306;2023-04-01T05:45:54;4.88;;;1.00;;
56670;SDS011;42545;50.054;8.306;2023-04-01T05:48:21;3.75;;;0.80;;
56670;SDS011;42545;50.054;8.306;2023-04-01T05:50:49;3.15;;;1.23;;
56670;SDS011;42545;50.054;8.306;2023-04-01T05:53:15;3.38;;;0.63;;
56670;SDS011;42545;50.054;8.306;2023-04-01T05:55:42;1.38;;;0.70;;
56670;SDS011;42545;50.054;8.306;2023-04-01T05:58:09;2.65;;;0.82;;
56670;SDS011;42545;50.054;8.306;2023-04-01T06:00:36;2.53;;;0.90;;
56670;SDS011;42545;50.054;8.306;2023-04-01T06:03:02;1.90;;;0.75;;
56670;SDS011;42545;50.054;8.306;2023-04-01T06:05:30;2.22;;;0.70;;
56670;SDS011;42545;50.054;8.306;2023-04-01T06:08:09;2.30;;;0.85;;
56670;SDS011;42545;50.054;8.306;2023-04-01T06:10:40;1.63;;;0.68;;
56670;SDS011;42545;50.054;8.306;2023-04-01T06:13:18;2.53;;;0.77;;
56670;SDS011;42545;50.054;8.306;2023-04-01T06:15:58;1.02;;;0.55;;
56670;SDS011;42545;50.054;8.306;2023-04-01T06:18:39;0.63;;;0.60;;
56670;SDS011;42545;50.054;8.306;2023-04-01T06:21:34;1.67;;;0.90;;
56670;SDS011;42545;50.054;8.306;2023-04-01T06:24:17;2.65;;;0.70;;
56670;SDS011;42545;50.054;8.306;2023-04-01T06:26:57;1.00;;;0.60;;
56670;SDS011;42545;50.054;8.306;2023-04-01T06:29:40;3.00;;;0.80;;
56670;SDS011;42545;50.054;8.306;2023-04-01T06:32:20;1.70;;;0.88;;
56670;SDS011;42545;50.054;8.306;2023-04-01T06:35:02;3.00;;;0.90;;
56670;SDS011;42545;50.054;8.306;2023-04-01T06:38:09;2.60;;;0.70;;
56670;SDS011;42545;50.054;8.306;2023-04-01T06:40:54;2.75;;;1.25;;
56670;SDS011;42545;50.054;8.306;2023-04-01T06:43:46;1.55;;;0.93;;
56670;SDS011;42545;50.054;8.306;2023-04-01T06:46:23;1.75;;;0.80;;
56670;SDS011;42545;50.054;8.306;2023-04-01T06:49:07;0.95;;;0.60;;
56670;SDS011;42545;50.054;8.306;2023-04-01T06:51:49;3.30;;;0.90;;
56670;SDS011;42545;50.054;8.306;2023-04-01T06:54:24;2.25;;;0.85;;
56670;SDS011;42545;50.054;8.306;2023-04-01T06:56:57;1.67;;;0.70;;
56670;SDS011;42545;50.054;8.306;2023-04-01T06:59:27;1.70;;;0.75;;
56670;SDS011;42545;50.054;8.306;2023-04-01T07:01:58;2.30;;;0.55;;
56670;SDS011;42545;50.054;8.306;2023-04-01T07:04:28;0.75;;;0.45;;
56670;SDS011;42545;50.054;8.306;2023-04-01T07:06:58;2.42;;;0.77;;
56670;SDS011;42545;50.054;8.306;2023-04-01T07:09:28;2.58;;;0.70;;
56670;SDS011;42545;50.054;8.306;2023-04-01T07:12:01;1.52;;;0.55;;
56670;SDS011;42545;50.054;8.306;2023-04-01T07:14:32;3.30;;;1.27;;
56670;SDS011;42545;50.054;8.306;2023-04-01T07:17:03;1.55;;;0.85;;
56670;SDS011;42545;50.054;8.306;2023-04-01T07:19:36;0.73;;;0.60;;
56670;SDS011;42545;50.054;8.306;2023-04-01T07:22:13;1.63;;;0.60;;
56670;SDS011;42545;50.054;8.306;2023-04-01T07:24:45;2.70;;;0.45;;
56670;SDS011;42545;50.054;8.306;2023-04-01T07:27:15;2.30;;;0.65;;
56670;SDS011;42545;50.054;8.306;2023-04-01T07:29:41;2.10;;;0.63;;
56670;SDS011;42545;50.054;8.306;2023-04-01T07:32:11;2.35;;;0.60;;
56670;SDS011;42545;50.054;8.306;2023-04-01T07:34:46;1.08;;;0.50;;
56670;SDS011;42545;50.054;8.306;2023-04-01T07:37:22;2.60;;;1.10;;
56670;SDS011;42545;50.054;8.306;2023-04-01T07:39:57;2.55;;;0.82;;
56670;SDS011;42545;50.054;8.306;2023-04-01T07:42:37;1.55;;;0.40;;
56670;SDS011;42545;50.054;8.306;2023-04-01T07:45:16;0.82;;;0.50;;
56670;SDS011;42545;50.054;8.306;2023-04-01T07:47:59;1.75;;;0.63;;
56670;SDS011;42545;50.054;8.306;2023-04-01T07:50:37;0.95;;;0.55;;
56670;SDS011;42545;50.054;8.306;2023-04-01T07:53:13;1.83;;;0.73;;
56670;SDS011;42545;50.054;8.306;2023-04-01T07:55:49;0.90;;;0.55;;
56670;SDS011;42545;50.054;8.306;2023-04-01T07:58:25;0.75;;;0.65;;
56670;SDS011;42545;50.054;8.306;2023-04-01T08:00:59;0.65;;;0.50;;
56670;SDS011;42545;50.054;8.306;2023-04-01T08:03:38;0.77;;;0.68;;
56670;SDS011;42545;50.054;8.306;2023-04-01T08:06:18;1.55;;;0.57;;
56670;SDS011;42545;50.054;8.306;2023-04-01T08:08:55;2.38;;;0.80;;
56670;SDS011;42545;50.054;8.306;2023-04-01T08:11:34;2.22;;;0.82;;
56670;SDS011;42545;50.054;8.306;2023-04-01T08:14:12;1.75;;;0.70;;
56670;SDS011;42545;50.054;8.306;2023-04-01T08:16:50;0.95;;;0.55;;
56670;SDS011;42545;50.054;8.306;2023-04-01T08:19:25;1.02;;;0.38;;
56670;SDS011;42545;50.054;8.306;2023-04-01T08:22:01;1.30;;;0.60;;
56670;SDS011;42545;50.054;8.306;2023-04-01T08:24:35;2.03;;;0.70;;
56670;SDS011;42545;50.054;8.306;2023-04-01T08:27:10;0.98;;;0.52;;
56670;SDS011;42545;50.054;8.306;2023-04-01T08:29:44;0.75;;;0.38;;
56670;SDS011;42545;50.054;8.306;2023-04-01T08:32:15;0.57;;;0.45;;
56670;SDS011;42545;50.054;8.306;2023-04-01T08:34:47;1.08;;;0.60;;
56670;SDS011;42545;50.054;8.306;2023-04-01T08:37:22;1.42;;;0.50;;
56670;SDS011;42545;50.054;8.306;2023-04-01T08:39:57;1.75;;;0.40;;
56670;SDS011;42545;50.054;8.306;2023-04-01T08:42:31;0.35;;;0.32;;
56670;SDS011;42545;50.054;8.306;2023-04-01T08:45:20;2.08;;;0.40;;
56670;SDS011;42545;50.054;8.306;2023-04-01T08:48:04;1.25;;;0.70;;
56670;SDS011;42545;50.054;8.306;2023-04-01T08:50:51;0.63;;;0.45;;
56670;SDS011;42545;50.054;8.306;2023-04-01T08:53:38;0.93;;;0.57;;
56670;SDS011;42545;50.054;8.306;2023-04-01T08:56:17;0.50;;;0.50;;
56670;SDS011;42545;50.054;8.306;2023-04-01T08:58:52;1.52;;;0.47;;
56670;SDS011;42545;50.054;8.306;2023-04-01T09:01:34;0.57;;;0.47;;
56670;SDS011;42545;50.054;8.306;2023-04-01T09:04:26;0.88;;;0.57;;
56670;SDS011;42545;50.054;8.306;2023-04-01T09:07:14;2.00;;;0.80;;
56670;SDS011;42545;50.054;8.306;2023-04-01T09:09:59;3.83;;;1.00;;
56670;SDS011;42545;50.054;8.306;2023-04-01T09:12:46;1.85;;;0.80;;
56670;SDS011;42545;50.054;8.306;2023-04-01T09:16:02;0.90;;;0.60;;
56670;SDS011;42545;50.054;8.306;2023-04-01T09:18:59;1.88;;;0.70;;
56670;SDS011;42545;50.054;8.306;2023-04-01T09:21:48;1.65;;;0.60;;
56670;SDS011;42545;50.054;8.306;2023-04-01T09:24:28;0.70;;;0.70;;
56670;SDS011;42545;50.054;8.306;2023-04-01T09:27:09;2.72;;;0.93;;
56670;SDS011;42545;50.054;8.306;2023-04-01T09:30:01;1.55;;;0.65;;
56670;SDS011;42545;50.054;8.306;2023-04-01T09:36:00;0.65;;;0.65;;
56670;SDS011;42545;50.054;8.306;2023-04-01T09:38:30;1.27;;;0.60;;
56670;SDS011;42545;50.054;8.306;2023-04-01T09:41:17;0.65;;;0.43;;
56670;SDS011;42545;50.054;8.306;2023-04-01T09:43:58;1.05;;;0.50;;
56670;SDS011;42545;50.054;8.306;2023-04-01T09:46:31;2.10;;;0.73;;
56670;SDS011;42545;50.054;8.306;2023-04-01T09:49:21;0.50;;;0.50;;
56670;SDS011;42545;50.054;8.306;2023-04-01T09:52:10;3.15;;;1.20;;
56670;SDS011;42545;50.054;8.306;2023-04-01T09:54:52;1.52;;;0.73;;
56670;SDS011;42545;50.054;8.306;2023-04-01T10:00:36;0.90;;;0.57;;
56670;SDS011;42545;50.054;8.306;2023-04-01T10:06:33;0.82;;;0.50;;
56670;SDS011;42545;50.054;8.306;2023-04-01T10:09:25;1.30;;;0.60;;
56670;SDS011;42545;50.054;8.306;2023-04-01T10:12:28;0.50;;;0.40;;
56670;SDS011;42545;50.054;8.306;2023-04-01T10:15:30;0.40;;;0.40;;
56670;SDS011;42545;50.054;8.306;2023-04-01T10:18:33;1.30;;;0.63;;
56670;SDS011;42545;50.054;8.306;2023-04-01T10:21:23;2.47;;;0.75;;
56670;SDS011;42545;50.054;8.306;2023-04-01T10:24:02;1.13;;;0.60;;
56670;SDS011;42545;50.054;8.306;2023-04-01T10:26:51;2.55;;;0.60;;
56670;SDS011;42545;50.054;8.306;2023-04-01T10:29:42;1.55;;;0.60;;
56670;SDS011;42545;50.054;8.306;2023-04-01T10:32:42;0.77;;;0.50;;
56670;SDS011;42545;50.054;8.306;2023-04-01T10:35:28;0.52;;;0.50;;
56670;SDS011;42545;50.054;8.306;2023-04-01T10:38:20;2.35;;;0.60;;
56670;SDS011;42545;50.054;8.306;2023-04-01T10:41:10;0.57;;;0.43;;
56670;SDS011;42545;50.054;8.306;2023-04-01T10:44:00;2.40;;;1.42;;
56670;SDS011;42545;50.054;8.306;2023-04-01T10:46:41;0.80;;;0.45;;
56670;SDS011;42545;50.054;8.306;2023-04-01T10:49:37;0.68;;;0.68;;
56670;SDS011;42545;50.054;8.306;2023-04-01T10:55:14;0.45;;;0.45;;
56670;SDS011;42545;50.054;8.306;2023-04-01T10:58:07;0.60;;;0.40;;
56670;SDS011;42545;50.054;8.306;2023-04-01T11:01:02;0.40;;;0.40;;
56670;SDS011;42545;50.054;8.306;2023-04-01T11:04:01;0.55;;;0.52;;
56670;SDS011;42545;50.054;8.306;2023-04-01T11:07:17;0.63;;;0.57;;
56670;SDS011;42545;50.054;8.306;2023-04-01T11:10:23;1.40;;;0.50;;
56670;SDS011;42545;50.054;8.306;2023-04-01T11:13:33;1.23;;;0.80;;
56670;SDS011;42545;50.054;8.306;2023-04-01T11:16:27;0.77;;;0.40;;
56670;SDS011;42545;50.054;8.306;2023-04-01T11:19:25;0.50;;;0.50;;
56670;SDS011;42545;50.054;8.306;2023-04-01T11:22:14;0.50;;;0.50;;
56670;SDS011;42545;50.054;8.306;2023-04-01T11:24:58;0.45;;;0.40;;
56670;SDS011;42545;50.054;8.306;2023-04-01T11:27:42;0.90;;;0.50;;
56670;SDS011;42545;50.054;8.306;2023-04-01T11:30:24;0.50;;;0.50;;
56670;SDS011;42545;50.054;8.306;2023-04-01T11:33:01;0.60;;;0.43;;
56670;SDS011;42545;50.054;8.306;2023-04-01T11:35:34;1.38;;;0.40;;
56670;SDS011;42545;50.054;8.306;2023-04-01T11:38:17;2.15;;;0.70;;
56670;SDS011;42545;50.054;8.306;2023-04-01T11:40:51;1.67;;;0.60;;
56670;SDS011;42545;50.054;8.306;2023-04-01T11:43:27;0.77;;;0.50;;
56670;SDS011;42545;50.054;8.306;2023-04-01T11:46:03;0.30;;;0.30;;
56670;SDS011;42545;50.054;8.306;2023-04-01T11:48:51;0.60;;;0.45;;
56670;SDS011;42545;50.054;8.306;2023-04-01T11:51:38;1.90;;;0.70;;
56670;SDS011;42545;50.054;8.306;2023-04-01T11:54:17;0.93;;;0.50;;
56670;SDS011;42545;50.054;8.306;2023-04-01T11:56:56;1.03;;;0.70;;
56670;SDS011;42545;50.054;8.306;2023-04-01T11:59:44;0.50;;;0.40;;
56670;SDS011;42545;50.054;8.306;2023-04-01T12:02:20;1.58;;;0.40;;
56670;SDS011;42545;50.054;8.306;2023-04-01T12:04:59;0.63;;;0.40;;
56670;SDS011;42545;50.054;8.306;2023-04-01T12:07:45;0.75;;;0.55;;
56670;SDS011;42545;50.054;8.306;2023-04-01T12:10:24;0.50;;;0.50;;
56670;SDS011;42545;50.054;8.306;2023-04-01T12:13:00;2.33;;;0.70;;
56670;SDS011;42545;50.054;8.306;2023-04-01T12:15:35;4.60;;;0.77;;
56670;SDS011;42545;50.054;8.306;2023-04-01T12:18:13;0.50;;;0.50;;
56670;SDS011;42545;50.054;8.306;2023-04-01T12:20:51;0.60;;;0.50;;
56670;SDS011;42545;50.054;8.306;2023-04-01T12:23:37;1.27;;;0.68;;
56670;SDS011;42545;50.054;8.306;2023-04-01T12:26:30;1.15;;;0.80;;
56670;SDS011;42545;50.054;8.306;2023-04-01T12:29:24;4.55;;;0.65;;
56670;SDS011;42545;50.054;8.306;2023-04-01T12:32:15;1.10;;;0.70;;
56670;SDS011;42545;50.054;8.306;2023-04-01T12:34:49;1.02;;;0.73;;
56670;SDS011;42545;50.054;8.306;2023-04-01T12:37:29;1.13;;;0.77;;
56670;SDS011;42545;50.054;8.306;2023-04-01T12:40:06;1.42;;;0.60;;
56670;SDS011;42545;50.054;8.306;2023-04-01T12:42:52;1.60;;;0.65;;
56670;SDS011;42545;50.054;8.306;2023-04-01T12:45:29;2.20;;;0.70;;
56670;SDS011;42545;50.054;8.306;2023-04-01T12:48:03;1.42;;;0.70;;
56670;SDS011;42545;50.054;8.306;2023-04-01T12:50:45;1.35;;;0.73;;
56670;SDS011;42545;50.054;8.306;2023-04-01T12:53:30;2.05;;;1.00;;
56670;SDS011;42545;50.054;8.306;2023-04-01T12:56:09;2.22;;;0.90;;
56670;SDS011;42545;50.054;8.306;2023-04-01T12:58:51;3.47;;;1.40;;
56670;SDS011;42545;50.054;8.306;2023-04-01T13:01:40;3.83;;;1.00;;
56670;SDS011;42545;50.054;8.306;2023-04-01T13:04:39;1.35;;;0.90;;
56670;SDS011;42545;50.054;8.306;2023-04-01T13:07:18;1.88;;;0.82;;
56670;SDS011;42545;50.054;8.306;2023-04-01T13:09:55;1.05;;;0.70;;
56670;SDS011;42545;50.054;8.306;2023-04-01T13:12:30;1.02;;;0.75;;
56670;SDS011;42545;50.054;8.306;2023-04-01T13:15:13;0.80;;;0.70;;
56670;SDS011;42545;50.054;8.306;2023-04-01T13:17:52;1.52;;;0.82;;
56670;SDS011;42545;50.054;8.306;2023-04-01T13:20:28;0.60;;;0.60;;
56670;SDS011;42545;50.054;8.306;2023-04-01T13:23:05;0.75;;;0.60;;
56670;SDS011;42545;50.054;8.306;2023-04-01T13:25:44;3.42;;;1.20;;
56670;SDS011;42545;50.054;8.306;2023-04-01T13:28:18;3.67;;;1.42;;
56670;SDS011;42545;50.054;8.306;2023-04-01T13:30:53;3.03;;;1.08;;
56670;SDS011;42545;50.054;8.306;2023-04-01T13:33:25;1.23;;;0.80;;
56670;SDS011;42545;50.054;8.306;2023-04-01T13:36:03;0.77;;;0.60;;
56670;SDS011;42545;50.054;8.306;2023-04-01T13:38:57;0.70;;;0.50;;
56670;SDS011;42545;50.054;8.306;2023-04-01T13:41:38;0.88;;;0.60;;
56670;SDS011;42545;50.054;8.306;2023-04-01T13:44:17;1.27;;;0.88;;
56670;SDS011;42545;50.054;8.306;2023-04-01T13:46:57;1.48;;;0.95;;
56670;SDS011;42545;50.054;8.306;2023-04-01T13:49:43;1.25;;;0.77;;
56670;SDS011;42545;50.054;8.306;2023-04-01T13:52:31;0.85;;;0.50;;
56670;SDS011;42545;50.054;8.306;2023-04-01T13:55:27;0.77;;;0.60;;
56670;SDS011;42545;50.054;8.306;2023-04-01T13:58:08;0.43;;;0.43;;
56670;SDS011;42545;50.054;8.306;2023-04-01T14:00:54;0.60;;;0.50;;
56670;SDS011;42545;50.054;8.306;2023-04-01T14:03:30;1.20;;;0.60;;
56670;SDS011;42545;50.054;8.306;2023-04-01T14:06:09;0.85;;;0.60;;
56670;SDS011;42545;50.054;8.306;2023-04-01T14:08:47;0.30;;;0.30;;
56670;SDS011;42545;50.054;8.306;2023-04-01T14:11:27;0.30;;;0.30;;
56670;SDS011;42545;50.054;8.306;2023-04-01T14:14:07;0.32;;;0.32;;
56670;SDS011;42545;50.054;8.306;2023-04-01T14:17:01;0.38;;;0.38;;
56670;SDS011;42545;50.054;8.306;2023-04-01T14:19:43;0.82;;;0.50;;
56670;SDS011;42545;50.054;8.306;2023-04-01T14:22:28;0.40;;;0.40;;
56670;SDS011;42545;50.054;8.306;2023-04-01T14:25:10;0.50;;;0.50;;
56670;SDS011;42545;50.054;8.306;2023-04-01T14:27:57;0.82;;;0.70;;
56670;SDS011;42545;50.054;8.306;2023-04-01T14:30:40;0.57;;;0.57;;
56670;SDS011;42545;50.054;8.306;2023-04-01T14:33:18;1.60;;;0.75;;
56670;SDS011;42545;50.054;8.306;2023-04-01T14:35:55;1.15;;;0.82;;
56670;SDS011;42545;50.054;8.306;2023-04-01T14:38:43;2.15;;;0.90;;
56670;SDS011;42545;50.054;8.306;2023-04-01T14:41:20;1.00;;;0.90;;
56670;SDS011;42545;50.054;8.306;2023-04-01T14:44:02;1.42;;;0.70;;
56670;SDS011;42545;50.054;8.306;2023-04-01T14:46:49;1.35;;;0.80;;
56670;SDS011;42545;50.054;8.306;2023-04-01T14:49:35;1.45;;;0.85;;
56670;SDS011;42545;50.054;8.306;2023-04-01T14:52:06;0.60;;;0.60;;
56670;SDS011;42545;50.054;8.306;2023-04-01T14:54:39;0.80;;;0.80;;
56670;SDS011;42545;50.054;8.306;2023-04-01T14:59:41;1.92;;;0.63;;
56670;SDS011;42545;50.054;8.306;2023-04-01T15:02:25;0.75;;;0.60;;
56670;SDS011;42545;50.054;8.306;2023-04-01T15:05:05;0.60;;;0.50;;
56670;SDS011;42545;50.054;8.306;2023-04-01T15:08:07;1.25;;;0.55;;
56670;SDS011;42545;50.054;8.306;2023-04-01T15:10:52;1.42;;;0.68;;
56670;SDS011;42545;50.054;8.306;2023-04-01T15:13:35;0.70;;;0.57;;
56670;SDS011;42545;50.054;8.306;2023-04-01T15:16:17;0.55;;;0.50;;
56670;SDS011;42545;50.054;8.306;2023-04-01T15:18:52;0.50;;;0.50;;
56670;SDS011;42545;50.054;8.306;2023-04-01T15:21:30;0.57;;;0.50;;
56670;SDS011;42545;50.054;8.306;2023-04-01T15:24:21;1.10;;;0.70;;
56670;SDS011;42545;50.054;8.306;2023-04-01T15:26:54;0.55;;;0.55;;
56670;SDS011;42545;50.054;8.306;2023-04-01T15:29:50;0.67;;;0.60;;
56670;SDS011;42545;50.054;8.306;2023-04-01T15:32:31;0.52;;;0.52;;
56670;SDS011;42545;50.054;8.306;2023-04-01T15:35:17;0.50;;;0.50;;
56670;SDS011;42545;50.054;8.306;2023-04-01T15:37:58;0.43;;;0.40;;
56670;SDS011;42545;50.054;8.306;2023-04-01T15:40:33;0.98;;;0.70;;
56670;SDS011;42545;50.054;8.306;2023-04-01T15:43:12;0.60;;;0.60;;
56670;SDS011;42545;50.054;8.306;2023-04-01T15:45:49;0.65;;;0.40;;
56670;SDS011;42545;50.054;8.306;2023-04-01T15:48:31;0.50;;;0.50;;
56670;SDS011;42545;50.054;8.306;2023-04-01T15:51:14;0.50;;;0.50;;
56670;SDS011;42545;50.054;8.306;2023-04-01T15:53:51;0.63;;;0.50;;
56670;SDS011;42545;50.054;8.306;2023-04-01T15:56:30;0.40;;;0.40;;
56670;SDS011;42545;50.054;8.306;2023-04-01T15:59:13;0.43;;;0.43;;
56670;SDS011;42545;50.054;8.306;2023-04-01T16:01:51;0.30;;;0.30;;
56670;SDS011;42545;50.054;8.306;2023-04-01T16:04:34;0.40;;;0.40;;